Pagrindinis puslapis
METAR-TAF:

METAR-TAF

Oro uostai :

Kuresarė, Estija

platuma: 58-13-48N, ilguma: 022-30-34E, Aukštis: 4 m

Dabartinis oras

Ataskaita buvo paskelbta 40 minutes, ne 11:50 UTC
Vėjas 9 kt iš Vakarų/Pietvakarių, svyruoja nuo Pietų ir Vakarų/Šiaurės Vakarų
Temperatūra 19°C
Drėgmė 60%
Slėgis 1027 hPa
Matomumas 10 km arba daugiau
Išsisklaidę debesys ne aukštis 3500 ft

METAR: EEKE 221150Z 24009KT 190V290 9999 SCT035 19/11 Q1027

Laikas: 15:30 (12:30 UTC)

Prognozė

Ataskaita buvo paskelbta 7 valandos ir 30 minutes, ne 05:00 UTC
Prognozė galioja nuo 22 metu 06 UTC su 22 metu 12 UTC
Vėjas 10 kt iš Vakarų/Pietvakarių
Matomumas 10 km arba daugiau
Išsisklaidę debesys ne aukštis 4000 ft
Laikinai
nuo 22 metu 06 UTC su 22 metu 10 UTC
Vėjas 13 kt iš Vakarų su gūsio iki 23 kt
Mažai debesys ne aukštis 3000 ft, Liūtiniai kamuoliniai debesys.

TAF: EEKE 220500Z 2206/2212 25010KT 9999 SCT040 TEMPO 2206/2210 27013G23KT FEW030CB

Orai ataskaitas ir orų prognozės (METAR, TAF).

turimą stotys yra geltonos ir raudonos taškus žemėlapyje.

Perkelti pele per norėdami pamatyti stoties vardą.

Tada spustelėkite, norėdami matyti oro stebėjimo ir prognozės.

Norėdami pakeisti žemėlapį: spustelėkite ant žalios mygtukų su juodo kryžiaus žemyn,; žalią mygtuką su brūkšneliu, jei norite nutolinti; arba žalių rodyklių gretimoms žemėlapius.


METAR-TAF: